sensor_id;sensor_type;location;lat;lon;timestamp;P1;durP1;ratioP1;P2;durP2;ratioP2
57071;SDS011;42956;51.366;11.298;2022-08-14T00:02:22;13.18;;;10.55;;
57071;SDS011;42956;51.366;11.298;2022-08-14T00:04:54;16.02;;;12.15;;
57071;SDS011;42956;51.366;11.298;2022-08-14T00:07:22;14.52;;;10.77;;
57071;SDS011;42956;51.366;11.298;2022-08-14T00:09:49;13.40;;;10.45;;
57071;SDS011;42956;51.366;11.298;2022-08-14T00:12:40;9.05;;;8.15;;
57071;SDS011;42956;51.366;11.298;2022-08-14T00:15:14;9.35;;;8.15;;
57071;SDS011;42956;51.366;11.298;2022-08-14T00:17:42;11.73;;;9.05;;
57071;SDS011;42956;51.366;11.298;2022-08-14T00:20:15;10.95;;;9.13;;
57071;SDS011;42956;51.366;11.298;2022-08-14T00:22:54;11.68;;;7.68;;
57071;SDS011;42956;51.366;11.298;2022-08-14T00:25:24;8.75;;;7.95;;
57071;SDS011;42956;51.366;11.298;2022-08-14T00:28:08;10.85;;;7.95;;
57071;SDS011;42956;51.366;11.298;2022-08-14T00:33:09;12.45;;;9.35;;
57071;SDS011;42956;51.366;11.298;2022-08-14T00:35:43;14.05;;;8.70;;
57071;SDS011;42956;51.366;11.298;2022-08-14T00:38:32;11.13;;;8.50;;
57071;SDS011;42956;51.366;11.298;2022-08-14T00:41:01;9.50;;;8.43;;
57071;SDS011;42956;51.366;11.298;2022-08-14T00:43:30;15.15;;;9.52;;
57071;SDS011;42956;51.366;11.298;2022-08-14T00:46:00;10.32;;;8.73;;
57071;SDS011;42956;51.366;11.298;2022-08-14T00:48:30;9.30;;;8.13;;
57071;SDS011;42956;51.366;11.298;2022-08-14T00:51:04;12.75;;;9.10;;
57071;SDS011;42956;51.366;11.298;2022-08-14T00:53:33;8.35;;;7.45;;
57071;SDS011;42956;51.366;11.298;2022-08-14T00:56:02;14.05;;;8.52;;
57071;SDS011;42956;51.366;11.298;2022-08-14T00:58:34;12.60;;;9.18;;
57071;SDS011;42956;51.366;11.298;2022-08-14T01:01:10;11.65;;;9.35;;
57071;SDS011;42956;51.366;11.298;2022-08-14T01:03:42;11.57;;;8.35;;
57071;SDS011;42956;51.366;11.298;2022-08-14T01:06:16;9.90;;;8.90;;
57071;SDS011;42956;51.366;11.298;2022-08-14T01:08:44;11.00;;;8.88;;
57071;SDS011;42956;51.366;11.298;2022-08-14T01:11:23;10.20;;;9.15;;
57071;SDS011;42956;51.366;11.298;2022-08-14T01:14:01;10.10;;;9.07;;
57071;SDS011;42956;51.366;11.298;2022-08-14T01:16:44;9.82;;;8.35;;
57071;SDS011;42956;51.366;11.298;2022-08-14T01:19:18;11.63;;;8.93;;
57071;SDS011;42956;51.366;11.298;2022-08-14T01:22:08;18.17;;;8.50;;
57071;SDS011;42956;51.366;11.298;2022-08-14T01:24:38;12.13;;;8.88;;
57071;SDS011;42956;51.366;11.298;2022-08-14T01:27:12;9.45;;;8.55;;
57071;SDS011;42956;51.366;11.298;2022-08-14T01:29:40;12.32;;;8.15;;
57071;SDS011;42956;51.366;11.298;2022-08-14T01:32:25;10.07;;;8.63;;
57071;SDS011;42956;51.366;11.298;2022-08-14T01:34:55;13.38;;;9.32;;
57071;SDS011;42956;51.366;11.298;2022-08-14T01:37:44;15.25;;;10.35;;
57071;SDS011;42956;51.366;11.298;2022-08-14T01:40:22;14.48;;;10.55;;
57071;SDS011;42956;51.366;11.298;2022-08-14T01:42:59;13.98;;;10.50;;
57071;SDS011;42956;51.366;11.298;2022-08-14T01:45:28;12.90;;;9.88;;
57071;SDS011;42956;51.366;11.298;2022-08-14T01:48:05;13.13;;;11.07;;
57071;SDS011;42956;51.366;11.298;2022-08-14T01:50:39;13.93;;;10.95;;
57071;SDS011;42956;51.366;11.298;2022-08-14T01:53:11;14.68;;;12.10;;
57071;SDS011;42956;51.366;11.298;2022-08-14T01:55:40;12.88;;;11.07;;
57071;SDS011;42956;51.366;11.298;2022-08-14T01:58:07;13.50;;;10.85;;
57071;SDS011;42956;51.366;11.298;2022-08-14T02:00:54;14.13;;;11.40;;
57071;SDS011;42956;51.366;11.298;2022-08-14T02:03:23;11.90;;;10.63;;
57071;SDS011;42956;51.366;11.298;2022-08-14T02:05:56;14.52;;;10.85;;
57071;SDS011;42956;51.366;11.298;2022-08-14T02:08:46;12.73;;;10.82;;
57071;SDS011;42956;51.366;11.298;2022-08-14T02:11:19;12.43;;;10.73;;
57071;SDS011;42956;51.366;11.298;2022-08-14T02:13:50;14.15;;;10.90;;
57071;SDS011;42956;51.366;11.298;2022-08-14T02:16:19;14.48;;;11.45;;
57071;SDS011;42956;51.366;11.298;2022-08-14T02:18:52;17.25;;;11.15;;
57071;SDS011;42956;51.366;11.298;2022-08-14T02:21:20;12.80;;;10.48;;
57071;SDS011;42956;51.366;11.298;2022-08-14T02:23:51;13.68;;;10.90;;
57071;SDS011;42956;51.366;11.298;2022-08-14T02:26:21;12.25;;;10.40;;
57071;SDS011;42956;51.366;11.298;2022-08-14T02:28:54;13.07;;;11.10;;
57071;SDS011;42956;51.366;11.298;2022-08-14T02:31:25;22.15;;;10.88;;
57071;SDS011;42956;51.366;11.298;2022-08-14T02:34:09;11.50;;;10.30;;
57071;SDS011;42956;51.366;11.298;2022-08-14T02:36:52;12.20;;;10.98;;
57071;SDS011;42956;51.366;11.298;2022-08-14T02:39:35;12.63;;;9.85;;
57071;SDS011;42956;51.366;11.298;2022-08-14T02:42:04;15.70;;;10.23;;
57071;SDS011;42956;51.366;11.298;2022-08-14T02:44:39;16.85;;;10.43;;
57071;SDS011;42956;51.366;11.298;2022-08-14T02:47:14;11.95;;;10.60;;
57071;SDS011;42956;51.366;11.298;2022-08-14T02:49:46;15.70;;;10.15;;
57071;SDS011;42956;51.366;11.298;2022-08-14T02:52:22;12.30;;;10.25;;
57071;SDS011;42956;51.366;11.298;2022-08-14T02:55:12;11.63;;;10.43;;
57071;SDS011;42956;51.366;11.298;2022-08-14T02:57:46;12.77;;;10.57;;
57071;SDS011;42956;51.366;11.298;2022-08-14T03:00:24;12.93;;;10.40;;
57071;SDS011;42956;51.366;11.298;2022-08-14T03:02:52;16.20;;;9.52;;
57071;SDS011;42956;51.366;11.298;2022-08-14T03:05:25;11.90;;;8.68;;
57071;SDS011;42956;51.366;11.298;2022-08-14T03:08:03;11.75;;;9.73;;
57071;SDS011;42956;51.366;11.298;2022-08-14T03:10:34;11.80;;;10.18;;
57071;SDS011;42956;51.366;11.298;2022-08-14T03:13:07;18.17;;;9.65;;
57071;SDS011;42956;51.366;11.298;2022-08-14T03:15:45;12.48;;;11.07;;
57071;SDS011;42956;51.366;11.298;2022-08-14T03:18:22;11.27;;;9.82;;
57071;SDS011;42956;51.366;11.298;2022-08-14T03:21:02;12.43;;;10.65;;
57071;SDS011;42956;51.366;11.298;2022-08-14T03:23:30;13.13;;;10.02;;
57071;SDS011;42956;51.366;11.298;2022-08-14T03:26:06;12.23;;;10.63;;
57071;SDS011;42956;51.366;11.298;2022-08-14T03:28:44;12.50;;;10.48;;
57071;SDS011;42956;51.366;11.298;2022-08-14T03:31:12;13.10;;;11.80;;
57071;SDS011;42956;51.366;11.298;2022-08-14T03:33:41;13.10;;;11.18;;
57071;SDS011;42956;51.366;11.298;2022-08-14T03:36:10;14.95;;;11.07;;
57071;SDS011;42956;51.366;11.298;2022-08-14T03:39:00;12.60;;;11.20;;
57071;SDS011;42956;51.366;11.298;2022-08-14T03:41:48;14.88;;;10.90;;
57071;SDS011;42956;51.366;11.298;2022-08-14T03:44:16;13.55;;;11.52;;
57071;SDS011;42956;51.366;11.298;2022-08-14T03:47:05;14.50;;;12.85;;
57071;SDS011;42956;51.366;11.298;2022-08-14T03:49:33;19.02;;;12.95;;
57071;SDS011;42956;51.366;11.298;2022-08-14T03:52:08;14.90;;;12.68;;
57071;SDS011;42956;51.366;11.298;2022-08-14T03:54:57;15.57;;;12.18;;
57071;SDS011;42956;51.366;11.298;2022-08-14T03:57:27;14.65;;;11.38;;
57071;SDS011;42956;51.366;11.298;2022-08-14T03:59:57;14.53;;;11.10;;
57071;SDS011;42956;51.366;11.298;2022-08-14T04:02:30;13.63;;;12.27;;
57071;SDS011;42956;51.366;11.298;2022-08-14T04:05:12;16.80;;;11.43;;
57071;SDS011;42956;51.366;11.298;2022-08-14T04:07:43;14.55;;;11.55;;
57071;SDS011;42956;51.366;11.298;2022-08-14T04:10:32;17.58;;;10.70;;
57071;SDS011;42956;51.366;11.298;2022-08-14T04:13:01;13.60;;;11.35;;
57071;SDS011;42956;51.366;11.298;2022-08-14T04:15:32;14.82;;;11.20;;
57071;SDS011;42956;51.366;11.298;2022-08-14T04:18:20;13.43;;;10.95;;
57071;SDS011;42956;51.366;11.298;2022-08-14T04:20:47;15.02;;;12.35;;
57071;SDS011;42956;51.366;11.298;2022-08-14T04:23:21;18.85;;;12.02;;
57071;SDS011;42956;51.366;11.298;2022-08-14T04:25:59;14.68;;;12.25;;
57071;SDS011;42956;51.366;11.298;2022-08-14T04:28:28;16.58;;;12.98;;
57071;SDS011;42956;51.366;11.298;2022-08-14T04:31:16;13.02;;;11.65;;
57071;SDS011;42956;51.366;11.298;2022-08-14T04:34:05;15.43;;;12.20;;
57071;SDS011;42956;51.366;11.298;2022-08-14T04:36:35;16.15;;;12.95;;
57071;SDS011;42956;51.366;11.298;2022-08-14T04:39:25;15.40;;;11.23;;
57071;SDS011;42956;51.366;11.298;2022-08-14T04:42:12;16.42;;;11.45;;
57071;SDS011;42956;51.366;11.298;2022-08-14T04:44:59;14.38;;;11.50;;
57071;SDS011;42956;51.366;11.298;2022-08-14T04:47:27;15.25;;;11.40;;
57071;SDS011;42956;51.366;11.298;2022-08-14T04:50:19;13.18;;;10.15;;
57071;SDS011;42956;51.366;11.298;2022-08-14T04:53:07;13.65;;;11.20;;
57071;SDS011;42956;51.366;11.298;2022-08-14T04:55:36;15.55;;;11.10;;
57071;SDS011;42956;51.366;11.298;2022-08-14T04:58:04;12.30;;;11.00;;
57071;SDS011;42956;51.366;11.298;2022-08-14T05:00:49;20.05;;;12.15;;
57071;SDS011;42956;51.366;11.298;2022-08-14T05:03:18;11.82;;;10.68;;
57071;SDS011;42956;51.366;11.298;2022-08-14T05:05:51;14.50;;;11.68;;
57071;SDS011;42956;51.366;11.298;2022-08-14T05:08:20;13.93;;;12.13;;
57071;SDS011;42956;51.366;11.298;2022-08-14T05:11:09;20.20;;;12.18;;
57071;SDS011;42956;51.366;11.298;2022-08-14T05:13:39;19.23;;;11.13;;
57071;SDS011;42956;51.366;11.298;2022-08-14T05:16:28;13.20;;;11.25;;
57071;SDS011;42956;51.366;11.298;2022-08-14T05:18:57;12.50;;;11.18;;
57071;SDS011;42956;51.366;11.298;2022-08-14T05:21:45;14.57;;;11.32;;
57071;SDS011;42956;51.366;11.298;2022-08-14T05:24:27;13.18;;;11.63;;
57071;SDS011;42956;51.366;11.298;2022-08-14T05:26:55;15.30;;;11.30;;
57071;SDS011;42956;51.366;11.298;2022-08-14T05:29:25;18.73;;;11.82;;
57071;SDS011;42956;51.366;11.298;2022-08-14T05:31:55;13.80;;;11.95;;
57071;SDS011;42956;51.366;11.298;2022-08-14T05:34:23;17.30;;;13.55;;
57071;SDS011;42956;51.366;11.298;2022-08-14T05:36:57;16.23;;;13.02;;
57071;SDS011;42956;51.366;11.298;2022-08-14T05:39:28;14.70;;;12.48;;
57071;SDS011;42956;51.366;11.298;2022-08-14T05:41:57;14.57;;;13.02;;
57071;SDS011;42956;51.366;11.298;2022-08-14T05:44:26;16.40;;;13.85;;
57071;SDS011;42956;51.366;11.298;2022-08-14T05:46:57;16.67;;;13.00;;
57071;SDS011;42956;51.366;11.298;2022-08-14T05:49:26;16.38;;;13.57;;
57071;SDS011;42956;51.366;11.298;2022-08-14T05:51:59;17.02;;;14.23;;
57071;SDS011;42956;51.366;11.298;2022-08-14T05:54:35;19.20;;;15.02;;
57071;SDS011;42956;51.366;11.298;2022-08-14T05:57:03;17.13;;;14.60;;
57071;SDS011;42956;51.366;11.298;2022-08-14T05:59:31;20.67;;;15.70;;
57071;SDS011;42956;51.366;11.298;2022-08-14T06:02:06;18.63;;;14.80;;
57071;SDS011;42956;51.366;11.298;2022-08-14T06:04:36;16.50;;;13.73;;
57071;SDS011;42956;51.366;11.298;2022-08-14T06:07:04;19.70;;;14.25;;
57071;SDS011;42956;51.366;11.298;2022-08-14T06:09:32;17.50;;;14.40;;
57071;SDS011;42956;51.366;11.298;2022-08-14T06:12:06;16.33;;;12.95;;
57071;SDS011;42956;51.366;11.298;2022-08-14T06:14:34;16.92;;;13.30;;
57071;SDS011;42956;51.366;11.298;2022-08-14T06:17:04;16.55;;;13.88;;
57071;SDS011;42956;51.366;11.298;2022-08-14T06:19:33;18.92;;;13.15;;
57071;SDS011;42956;51.366;11.298;2022-08-14T06:22:01;16.13;;;13.43;;
57071;SDS011;42956;51.366;11.298;2022-08-14T06:24:29;19.30;;;13.60;;
57071;SDS011;42956;51.366;11.298;2022-08-14T06:27:01;20.05;;;13.82;;
57071;SDS011;42956;51.366;11.298;2022-08-14T06:29:36;19.08;;;15.32;;
57071;SDS011;42956;51.366;11.298;2022-08-14T06:32:04;21.08;;;15.95;;
57071;SDS011;42956;51.366;11.298;2022-08-14T06:34:53;19.40;;;15.35;;
57071;SDS011;42956;51.366;11.298;2022-08-14T06:37:39;18.95;;;15.40;;
57071;SDS011;42956;51.366;11.298;2022-08-14T06:40:07;19.85;;;14.85;;
57071;SDS011;42956;51.366;11.298;2022-08-14T06:42:54;16.92;;;13.48;;
57071;SDS011;42956;51.366;11.298;2022-08-14T06:45:25;19.25;;;15.00;;
57071;SDS011;42956;51.366;11.298;2022-08-14T06:47:53;15.35;;;13.75;;
57071;SDS011;42956;51.366;11.298;2022-08-14T06:50:26;17.23;;;14.55;;
57071;SDS011;42956;51.366;11.298;2022-08-14T06:52:56;15.65;;;13.68;;
57071;SDS011;42956;51.366;11.298;2022-08-14T06:55:24;16.20;;;13.23;;
57071;SDS011;42956;51.366;11.298;2022-08-14T06:57:55;15.15;;;13.18;;
57071;SDS011;42956;51.366;11.298;2022-08-14T07:00:24;18.27;;;12.57;;
57071;SDS011;42956;51.366;11.298;2022-08-14T07:02:57;16.25;;;12.93;;
57071;SDS011;42956;51.366;11.298;2022-08-14T07:05:44;14.13;;;12.73;;
57071;SDS011;42956;51.366;11.298;2022-08-14T07:08:24;15.38;;;13.52;;
57071;SDS011;42956;51.366;11.298;2022-08-14T07:10:58;14.38;;;12.55;;
57071;SDS011;42956;51.366;11.298;2022-08-14T07:13:26;15.02;;;12.18;;
57071;SDS011;42956;51.366;11.298;2022-08-14T07:15:56;14.02;;;12.45;;
57071;SDS011;42956;51.366;11.298;2022-08-14T07:18:31;14.55;;;12.07;;
57071;SDS011;42956;51.366;11.298;2022-08-14T07:21:01;15.10;;;13.52;;
57071;SDS011;42956;51.366;11.298;2022-08-14T07:23:30;16.85;;;12.63;;
57071;SDS011;42956;51.366;11.298;2022-08-14T07:25:58;15.40;;;12.88;;
57071;SDS011;42956;51.366;11.298;2022-08-14T07:28:28;22.15;;;13.32;;
57071;SDS011;42956;51.366;11.298;2022-08-14T07:30:57;14.20;;;12.55;;
57071;SDS011;42956;51.366;11.298;2022-08-14T07:33:32;15.52;;;12.15;;
57071;SDS011;42956;51.366;11.298;2022-08-14T07:36:04;16.55;;;13.02;;
57071;SDS011;42956;51.366;11.298;2022-08-14T07:38:52;14.50;;;12.98;;
57071;SDS011;42956;51.366;11.298;2022-08-14T07:41:21;14.98;;;12.68;;
57071;SDS011;42956;51.366;11.298;2022-08-14T07:43:49;13.73;;;12.23;;
57071;SDS011;42956;51.366;11.298;2022-08-14T07:46:22;14.15;;;12.32;;
57071;SDS011;42956;51.366;11.298;2022-08-14T07:48:56;14.48;;;12.98;;
57071;SDS011;42956;51.366;11.298;2022-08-14T07:51:26;14.63;;;12.73;;
57071;SDS011;42956;51.366;11.298;2022-08-14T07:54:03;15.13;;;13.15;;
57071;SDS011;42956;51.366;11.298;2022-08-14T07:56:37;13.65;;;12.13;;
57071;SDS011;42956;51.366;11.298;2022-08-14T07:59:14;16.02;;;13.32;;
57071;SDS011;42956;51.366;11.298;2022-08-14T08:01:44;12.77;;;11.57;;
57071;SDS011;42956;51.366;11.298;2022-08-14T08:06:51;16.23;;;12.82;;
57071;SDS011;42956;51.366;11.298;2022-08-14T08:09:21;16.90;;;12.80;;
57071;SDS011;42956;51.366;11.298;2022-08-14T08:11:58;16.33;;;12.95;;
57071;SDS011;42956;51.366;11.298;2022-08-14T08:16:58;15.45;;;12.93;;
57071;SDS011;42956;51.366;11.298;2022-08-14T08:19:27;13.95;;;12.55;;
57071;SDS011;42956;51.366;11.298;2022-08-14T08:22:03;13.90;;;12.35;;
57071;SDS011;42956;51.366;11.298;2022-08-14T08:24:31;14.75;;;13.07;;
57071;SDS011;42956;51.366;11.298;2022-08-14T08:27:01;14.00;;;12.50;;
57071;SDS011;42956;51.366;11.298;2022-08-14T08:29:29;14.07;;;12.55;;
57071;SDS011;42956;51.366;11.298;2022-08-14T08:31:57;14.45;;;12.95;;
57071;SDS011;42956;51.366;11.298;2022-08-14T08:34:41;15.23;;;12.32;;
57071;SDS011;42956;51.366;11.298;2022-08-14T08:37:13;14.75;;;12.50;;
57071;SDS011;42956;51.366;11.298;2022-08-14T08:39:42;19.45;;;13.10;;
57071;SDS011;42956;51.366;11.298;2022-08-14T08:42:29;14.05;;;12.65;;
57071;SDS011;42956;51.366;11.298;2022-08-14T08:45:13;15.77;;;13.70;;
57071;SDS011;42956;51.366;11.298;2022-08-14T08:47:43;16.55;;;13.43;;
57071;SDS011;42956;51.366;11.298;2022-08-14T08:50:16;14.52;;;13.02;;
57071;SDS011;42956;51.366;11.298;2022-08-14T08:52:58;13.75;;;12.05;;
57071;SDS011;42956;51.366;11.298;2022-08-14T08:55:29;14.93;;;12.00;;
57071;SDS011;42956;51.366;11.298;2022-08-14T08:57:57;17.70;;;13.13;;
57071;SDS011;42956;51.366;11.298;2022-08-14T09:00:26;15.15;;;12.50;;
57071;SDS011;42956;51.366;11.298;2022-08-14T09:02:59;12.65;;;11.32;;
57071;SDS011;42956;51.366;11.298;2022-08-14T09:05:30;11.57;;;10.45;;
57071;SDS011;42956;51.366;11.298;2022-08-14T09:08:11;16.85;;;12.07;;
57071;SDS011;42956;51.366;11.298;2022-08-14T09:10:58;15.25;;;11.15;;
57071;SDS011;42956;51.366;11.298;2022-08-14T09:13:26;10.70;;;9.65;;
57071;SDS011;42956;51.366;11.298;2022-08-14T09:15:56;12.57;;;9.63;;
57071;SDS011;42956;51.366;11.298;2022-08-14T09:18:24;10.63;;;9.52;;
57071;SDS011;42956;51.366;11.298;2022-08-14T09:20:53;10.95;;;9.82;;
57071;SDS011;42956;51.366;11.298;2022-08-14T09:23:26;10.83;;;9.73;;
57071;SDS011;42956;51.366;11.298;2022-08-14T09:26:14;9.60;;;8.70;;
57071;SDS011;42956;51.366;11.298;2022-08-14T09:28:47;10.40;;;9.38;;
57071;SDS011;42956;51.366;11.298;2022-08-14T09:31:15;12.57;;;9.52;;
57071;SDS011;42956;51.366;11.298;2022-08-14T09:33:51;10.18;;;8.82;;
57071;SDS011;42956;51.366;11.298;2022-08-14T09:36:26;11.35;;;9.23;;
57071;SDS011;42956;51.366;11.298;2022-08-14T09:39:03;10.05;;;9.05;;
57071;SDS011;42956;51.366;11.298;2022-08-14T09:41:41;9.88;;;8.90;;
57071;SDS011;42956;51.366;11.298;2022-08-14T09:44:41;11.15;;;7.68;;
57071;SDS011;42956;51.366;11.298;2022-08-14T09:47:15;9.52;;;7.35;;
57071;SDS011;42956;51.366;11.298;2022-08-14T09:49:44;13.55;;;7.32;;
57071;SDS011;42956;51.366;11.298;2022-08-14T09:52:19;10.68;;;7.97;;
57071;SDS011;42956;51.366;11.298;2022-08-14T09:55:01;8.63;;;7.53;;
57071;SDS011;42956;51.366;11.298;2022-08-14T09:57:30;9.40;;;8.32;;
57071;SDS011;42956;51.366;11.298;2022-08-14T10:00:08;12.25;;;9.30;;
57071;SDS011;42956;51.366;11.298;2022-08-14T10:02:56;9.10;;;7.53;;
57071;SDS011;42956;51.366;11.298;2022-08-14T10:05:32;9.70;;;7.00;;
57071;SDS011;42956;51.366;11.298;2022-08-14T10:08:14;11.30;;;7.53;;
57071;SDS011;42956;51.366;11.298;2022-08-14T10:10:53;10.38;;;8.18;;
57071;SDS011;42956;51.366;11.298;2022-08-14T10:13:28;8.30;;;7.43;;
57071;SDS011;42956;51.366;11.298;2022-08-14T10:16:16;9.18;;;7.85;;
57071;SDS011;42956;51.366;11.298;2022-08-14T10:19:01;8.65;;;7.38;;
57071;SDS011;42956;51.366;11.298;2022-08-14T10:21:32;9.63;;;7.78;;
57071;SDS011;42956;51.366;11.298;2022-08-14T10:24:04;8.80;;;7.90;;
57071;SDS011;42956;51.366;11.298;2022-08-14T10:26:52;9.88;;;8.25;;
57071;SDS011;42956;51.366;11.298;2022-08-14T10:29:30;11.65;;;9.55;;
57071;SDS011;42956;51.366;11.298;2022-08-14T10:32:00;12.40;;;7.63;;
57071;SDS011;42956;51.366;11.298;2022-08-14T10:34:43;8.82;;;7.93;;
57071;SDS011;42956;51.366;11.298;2022-08-14T10:37:18;7.97;;;7.18;;
57071;SDS011;42956;51.366;11.298;2022-08-14T10:39:57;9.50;;;6.82;;
57071;SDS011;42956;51.366;11.298;2022-08-14T10:42:37;9.88;;;7.70;;
57071;SDS011;42956;51.366;11.298;2022-08-14T10:47:51;10.90;;;7.75;;
57071;SDS011;42956;51.366;11.298;2022-08-14T10:50:40;9.05;;;7.47;;
57071;SDS011;42956;51.366;11.298;2022-08-14T10:53:12;9.23;;;7.68;;
57071;SDS011;42956;51.366;11.298;2022-08-14T10:55:40;8.40;;;7.60;;
57071;SDS011;42956;51.366;11.298;2022-08-14T10:58:12;9.25;;;7.50;;
57071;SDS011;42956;51.366;11.298;2022-08-14T11:00:52;9.20;;;8.30;;
57071;SDS011;42956;51.366;11.298;2022-08-14T11:03:22;10.05;;;7.65;;
57071;SDS011;42956;51.366;11.298;2022-08-14T11:06:09;13.27;;;7.88;;
57071;SDS011;42956;51.366;11.298;2022-08-14T11:08:38;10.30;;;8.32;;
57071;SDS011;42956;51.366;11.298;2022-08-14T11:11:11;8.40;;;7.07;;
57071;SDS011;42956;51.366;11.298;2022-08-14T11:13:41;11.05;;;6.95;;
57071;SDS011;42956;51.366;11.298;2022-08-14T11:16:12;10.88;;;7.15;;
57071;SDS011;42956;51.366;11.298;2022-08-14T11:18:45;8.88;;;6.95;;
57071;SDS011;42956;51.366;11.298;2022-08-14T11:21:17;7.82;;;6.88;;
57071;SDS011;42956;51.366;11.298;2022-08-14T11:23:55;7.72;;;6.82;;
57071;SDS011;42956;51.366;11.298;2022-08-14T11:26:25;10.13;;;8.35;;
57071;SDS011;42956;51.366;11.298;2022-08-14T11:28:57;7.22;;;6.53;;
57071;SDS011;42956;51.366;11.298;2022-08-14T11:31:28;8.98;;;6.60;;
57071;SDS011;42956;51.366;11.298;2022-08-14T11:34:04;11.57;;;6.78;;
57071;SDS011;42956;51.366;11.298;2022-08-14T11:36:53;8.25;;;6.95;;
57071;SDS011;42956;51.366;11.298;2022-08-14T11:39:41;7.20;;;6.47;;
57071;SDS011;42956;51.366;11.298;2022-08-14T11:42:18;7.13;;;6.53;;
57071;SDS011;42956;51.366;11.298;2022-08-14T11:45:08;6.82;;;6.03;;
57071;SDS011;42956;51.366;11.298;2022-08-14T11:47:44;10.73;;;6.40;;
57071;SDS011;42956;51.366;11.298;2022-08-14T11:50:32;7.80;;;6.40;;
57071;SDS011;42956;51.366;11.298;2022-08-14T11:53:03;9.40;;;7.03;;
57071;SDS011;42956;51.366;11.298;2022-08-14T11:55:34;8.68;;;5.88;;
57071;SDS011;42956;51.366;11.298;2022-08-14T11:58:07;6.72;;;6.10;;
57071;SDS011;42956;51.366;11.298;2022-08-14T12:00:47;9.18;;;6.28;;
57071;SDS011;42956;51.366;11.298;2022-08-14T12:03:18;7.82;;;6.25;;
57071;SDS011;42956;51.366;11.298;2022-08-14T12:06:06;7.00;;;6.30;;
57071;SDS011;42956;51.366;11.298;2022-08-14T12:08:54;6.88;;;6.28;;
57071;SDS011;42956;51.366;11.298;2022-08-14T12:11:36;6.85;;;6.15;;
57071;SDS011;42956;51.366;11.298;2022-08-14T12:14:09;6.32;;;5.18;;
57071;SDS011;42956;51.366;11.298;2022-08-14T12:17:02;8.45;;;5.90;;
57071;SDS011;42956;51.366;11.298;2022-08-14T12:19:47;6.28;;;5.30;;
57071;SDS011;42956;51.366;11.298;2022-08-14T12:22:30;7.20;;;6.00;;
57071;SDS011;42956;51.366;11.298;2022-08-14T12:24:59;6.00;;;5.32;;
57071;SDS011;42956;51.366;11.298;2022-08-14T12:27:35;9.52;;;5.35;;
57071;SDS011;42956;51.366;11.298;2022-08-14T12:30:07;6.57;;;5.93;;
57071;SDS011;42956;51.366;11.298;2022-08-14T12:32:39;8.00;;;5.30;;
57071;SDS011;42956;51.366;11.298;2022-08-14T12:35:07;11.90;;;6.63;;
57071;SDS011;42956;51.366;11.298;2022-08-14T12:37:36;7.95;;;5.93;;
57071;SDS011;42956;51.366;11.298;2022-08-14T12:40:10;7.25;;;5.45;;
57071;SDS011;42956;51.366;11.298;2022-08-14T12:42:41;5.82;;;5.07;;
57071;SDS011;42956;51.366;11.298;2022-08-14T12:45:27;7.57;;;5.50;;
57071;SDS011;42956;51.366;11.298;2022-08-14T12:47:59;6.93;;;5.78;;
57071;SDS011;42956;51.366;11.298;2022-08-14T12:50:47;6.82;;;6.07;;
57071;SDS011;42956;51.366;11.298;2022-08-14T12:53:18;6.47;;;5.88;;
57071;SDS011;42956;51.366;11.298;2022-08-14T12:55:57;9.70;;;6.15;;
57071;SDS011;42956;51.366;11.298;2022-08-14T12:58:48;10.73;;;5.25;;
57071;SDS011;42956;51.366;11.298;2022-08-14T13:01:18;7.70;;;5.20;;
57071;SDS011;42956;51.366;11.298;2022-08-14T13:03:48;9.77;;;6.50;;
57071;SDS011;42956;51.366;11.298;2022-08-14T13:06:18;7.43;;;5.47;;
57071;SDS011;42956;51.366;11.298;2022-08-14T13:08:50;6.57;;;5.60;;
57071;SDS011;42956;51.366;11.298;2022-08-14T13:11:26;10.00;;;5.57;;
57071;SDS011;42956;51.366;11.298;2022-08-14T13:13:57;6.33;;;5.73;;
57071;SDS011;42956;51.366;11.298;2022-08-14T13:16:27;6.30;;;5.55;;
57071;SDS011;42956;51.366;11.298;2022-08-14T13:19:06;5.45;;;4.95;;
57071;SDS011;42956;51.366;11.298;2022-08-14T13:21:37;10.55;;;5.18;;
57071;SDS011;42956;51.366;11.298;2022-08-14T13:24:25;5.35;;;4.90;;
57071;SDS011;42956;51.366;11.298;2022-08-14T13:26:59;8.23;;;6.13;;
57071;SDS011;42956;51.366;11.298;2022-08-14T13:29:31;8.65;;;5.75;;
57071;SDS011;42956;51.366;11.298;2022-08-14T13:32:02;9.68;;;5.47;;
57071;SDS011;42956;51.366;11.298;2022-08-14T13:34:33;9.90;;;5.45;;
57071;SDS011;42956;51.366;11.298;2022-08-14T13:37:02;6.20;;;5.60;;
57071;SDS011;42956;51.366;11.298;2022-08-14T13:39:32;8.50;;;4.50;;
57071;SDS011;42956;51.366;11.298;2022-08-14T13:42:03;6.95;;;5.38;;
57071;SDS011;42956;51.366;11.298;2022-08-14T13:44:39;7.22;;;5.95;;
57071;SDS011;42956;51.366;11.298;2022-08-14T13:47:08;5.25;;;4.72;;
57071;SDS011;42956;51.366;11.298;2022-08-14T13:49:38;7.15;;;4.80;;
57071;SDS011;42956;51.366;11.298;2022-08-14T13:52:24;5.18;;;4.75;;
57071;SDS011;42956;51.366;11.298;2022-08-14T13:55:12;5.38;;;4.85;;
57071;SDS011;42956;51.366;11.298;2022-08-14T13:57:43;6.40;;;5.75;;
57071;SDS011;42956;51.366;11.298;2022-08-14T14:00:22;5.45;;;4.95;;
57071;SDS011;42956;51.366;11.298;2022-08-14T14:02:58;6.53;;;5.07;;
57071;SDS011;42956;51.366;11.298;2022-08-14T14:05:28;5.60;;;4.90;;
57071;SDS011;42956;51.366;11.298;2022-08-14T14:08:16;5.43;;;4.82;;
57071;SDS011;42956;51.366;11.298;2022-08-14T14:11:05;5.95;;;5.28;;
57071;SDS011;42956;51.366;11.298;2022-08-14T14:13:33;5.50;;;5.00;;
57071;SDS011;42956;51.366;11.298;2022-08-14T14:16:07;8.38;;;5.95;;
57071;SDS011;42956;51.366;11.298;2022-08-14T14:18:41;10.35;;;5.57;;
57071;SDS011;42956;51.366;11.298;2022-08-14T14:21:13;6.13;;;4.65;;
57071;SDS011;42956;51.366;11.298;2022-08-14T14:23:47;6.63;;;5.07;;
57071;SDS011;42956;51.366;11.298;2022-08-14T14:26:16;6.38;;;5.28;;
57071;SDS011;42956;51.366;11.298;2022-08-14T14:28:50;5.32;;;4.82;;
57071;SDS011;42956;51.366;11.298;2022-08-14T14:31:21;5.30;;;4.53;;
57071;SDS011;42956;51.366;11.298;2022-08-14T14:33:57;7.93;;;5.05;;
57071;SDS011;42956;51.366;11.298;2022-08-14T14:36:27;6.45;;;5.10;;
57071;SDS011;42956;51.366;11.298;2022-08-14T14:38:56;5.85;;;5.25;;
57071;SDS011;42956;51.366;11.298;2022-08-14T14:41:26;5.78;;;5.15;;
57071;SDS011;42956;51.366;11.298;2022-08-14T14:44:04;5.90;;;5.05;;
57071;SDS011;42956;51.366;11.298;2022-08-14T14:46:35;6.40;;;5.00;;
57071;SDS011;42956;51.366;11.298;2022-08-14T14:49:08;5.85;;;4.90;;
57071;SDS011;42956;51.366;11.298;2022-08-14T14:51:41;4.75;;;4.35;;
57071;SDS011;42956;51.366;11.298;2022-08-14T14:54:17;5.90;;;4.78;;
57071;SDS011;42956;51.366;11.298;2022-08-14T14:57:03;5.78;;;5.18;;
57071;SDS011;42956;51.366;11.298;2022-08-14T14:59:35;6.40;;;4.78;;
57071;SDS011;42956;51.366;11.298;2022-08-14T15:02:05;4.78;;;4.28;;
57071;SDS011;42956;51.366;11.298;2022-08-14T15:04:35;5.43;;;4.50;;
57071;SDS011;42956;51.366;11.298;2022-08-14T15:07:05;9.65;;;4.93;;
57071;SDS011;42956;51.366;11.298;2022-08-14T15:09:33;5.40;;;4.90;;
57071;SDS011;42956;51.366;11.298;2022-08-14T15:12:02;7.07;;;4.88;;
57071;SDS011;42956;51.366;11.298;2022-08-14T15:14:50;5.95;;;4.78;;